Time;durP1;ratioP1;P1;durP2;ratioP2;P2;SDS_P1;SDS_P2;PMS_P1;PMS_P2;Temp;Humidity;BMP_temperature;BMP_pressure;BME280_temperature;BME280_humidity;BME280_pressure;Samples;Min_cycle;Max_cycle;Signal;HPM_P1;HPM_P2
2022/05/20 00:00:35;;;;;;;93.35;54.13;;;22.10;64.30;;;;;;4937622;28;76387;-39
2022/05/20 00:03:01;;;;;;;93.13;54.20;;;22.10;64.20;;;;;;4937897;28;79912;-39
2022/05/20 00:05:28;;;;;;;94.05;54.00;;;22.10;64.10;;;;;;4951559;28;78817;-41
2022/05/20 00:07:55;;;;;;;92.82;54.15;;;22.10;64.40;;;;;;4942049;28;76016;-38
2022/05/20 00:10:21;;;;;;;93.63;54.38;;;22.10;64.50;;;;;;4943495;28;78244;-38
2022/05/20 00:12:47;;;;;;;92.75;54.10;;;22.10;64.40;;;;;;4938136;28;78606;-42
2022/05/20 00:15:16;;;;;;;93.05;54.17;;;22.10;64.20;;;;;;4947274;28;78064;-41
2022/05/20 00:17:43;;;;;;;93.15;54.15;;;22.10;64.60;;;;;;4938775;28;78459;-38
2022/05/20 00:20:10;;;;;;;91.68;53.97;;;22.10;64.40;;;;;;4941902;28;81702;-40
2022/05/20 00:22:36;;;;;;;94.43;54.28;;;22.00;64.70;;;;;;4942728;28;78094;-40
2022/05/20 00:27:45;;;;;;;93.32;54.25;;;22.00;64.50;;;;;;4949493;28;80363;-40
2022/05/20 00:30:12;;;;;;;93.47;54.35;;;22.00;64.60;;;;;;4952972;28;77321;-38
2022/05/20 00:32:38;;;;;;;93.47;54.33;;;22.00;64.80;;;;;;4943173;28;78634;-39
2022/05/20 00:35:04;;;;;;;93.13;54.15;;;22.00;64.40;;;;;;4945087;28;79650;-37
2022/05/20 00:37:30;;;;;;;95.07;54.42;;;21.90;64.60;;;;;;4945799;28;75470;-39
2022/05/20 00:39:56;;;;;;;91.82;53.97;;;22.00;64.60;;;;;;4938704;28;79939;-40
2022/05/20 00:42:22;;;;;;;92.85;54.00;;;22.00;64.50;;;;;;4937577;28;78194;-38
2022/05/20 00:44:47;;;;;;;92.60;53.90;;;21.90;64.50;;;;;;4942392;28;76025;-38
2022/05/20 00:47:14;;;;;;;93.80;54.25;;;21.90;64.70;;;;;;4942150;28;73895;-38
2022/05/20 00:49:45;;;;;;;92.70;54.10;;;21.90;64.70;;;;;;4944913;28;75509;-42
2022/05/20 00:52:14;;;;;;;92.63;53.95;;;21.90;64.60;;;;;;4945645;28;76585;-39
2022/05/20 00:54:44;;;;;;;91.88;53.95;;;21.90;64.50;;;;;;4937405;28;76908;-40
2022/05/20 00:57:15;;;;;;;92.25;54.22;;;21.90;64.40;;;;;;4951830;28;80390;-40
2022/05/20 00:59:46;;;;;;;;;;;21.90;64.70;;;;;;4949806;28;81874;-39
2022/05/20 01:02:17;;;;;;;91.82;54.22;;;21.90;64.70;;;;;;4945326;28;76850;-38
2022/05/20 01:04:44;;;;;;;92.05;54.15;;;21.90;64.50;;;;;;4940631;28;76192;-40
2022/05/20 01:07:10;;;;;;;92.35;54.10;;;21.90;64.40;;;;;;4943614;28;80103;-40
2022/05/20 01:09:37;;;;;;;94.53;54.80;;;21.90;64.20;;;;;;4947199;28;75928;-40
2022/05/20 01:12:04;;;;;;;91.80;54.13;;;21.90;64.60;;;;;;4935628;28;80283;-38
2022/05/20 01:14:29;;;;;;;92.10;54.00;;;21.90;64.20;;;;;;4932072;28;75500;-40
2022/05/20 01:16:55;;;;;;;90.50;53.78;;;21.80;64.40;;;;;;4946384;28;80130;-40
2022/05/20 01:19:36;;;;;;;91.80;53.67;;;21.80;64.40;;;;;;4948513;28;77983;-39
2022/05/20 01:22:04;;;;;;;90.75;53.90;;;21.80;64.30;;;;;;4946792;28;77562;-39
2022/05/20 01:24:30;;;;;;;90.07;53.95;;;21.80;63.90;;;;;;4941147;28;75949;-39
2022/05/20 01:26:55;;;;;;;90.32;53.83;;;21.70;64.40;;;;;;4947211;28;75629;-38
2022/05/20 01:29:21;;;;;;;90.40;53.88;;;21.70;64.30;;;;;;4944549;28;80634;-38
2022/05/20 01:31:47;;;;;;;90.40;53.67;;;21.70;64.60;;;;;;4949665;28;74164;-43
2022/05/20 01:34:12;;;;;;;90.40;53.83;;;21.70;64.30;;;;;;4943489;28;79479;-39
2022/05/20 01:36:38;;;;;;;90.70;54.05;;;21.70;64.30;;;;;;4951673;28;76778;-39
2022/05/20 01:39:04;;;;;;;90.20;53.53;;;21.70;64.20;;;;;;4938908;28;79501;-40
2022/05/20 01:41:38;;;;;;;90.18;53.58;;;21.70;64.40;;;;;;4937119;28;75239;-38
2022/05/20 01:44:03;;;;;;;90.85;53.72;;;21.60;64.40;;;;;;4941395;28;79808;-40
2022/05/20 01:46:41;;;;;;;89.60;53.83;;;21.60;64.30;;;;;;4932295;28;83008;-41
2022/05/20 01:49:16;;;;;;;90.20;53.60;;;21.60;64.70;;;;;;4942606;28;77668;-41
2022/05/20 01:52:08;;;;;;;89.63;53.70;;;21.60;64.10;;;;;;4946366;28;77358;-39
2022/05/20 01:54:59;;;;;;;89.40;53.85;;;21.60;64.40;;;;;;4935999;28;79622;-38
2022/05/20 01:57:28;;;;;;;89.72;53.97;;;21.60;64.30;;;;;;4946173;28;81809;-39
2022/05/20 02:00:00;;;;;;;89.82;53.65;;;21.60;64.30;;;;;;4945997;28;75813;-39
2022/05/20 02:02:32;;;;;;;89.35;53.47;;;21.60;64.10;;;;;;4938457;28;76969;-41
2022/05/20 02:05:08;;;;;;;88.88;53.63;;;21.60;64.30;;;;;;4946589;28;77958;-38
2022/05/20 02:07:39;;;;;;;89.65;53.65;;;21.60;64.30;;;;;;4944184;28;86600;-39
2022/05/20 02:10:27;;;;;;;89.40;53.58;;;21.60;64.30;;;;;;4940636;28;76919;-41
2022/05/20 02:12:57;;;;;;;88.60;53.58;;;21.60;64.20;;;;;;4935147;28;81056;-38
2022/05/20 02:15:39;;;;;;;88.22;53.42;;;21.70;63.90;;;;;;4942592;28;78297;-39
2022/05/20 02:18:08;;;;;;;89.45;53.53;;;21.60;63.90;;;;;;4943370;28;78674;-41
2022/05/20 02:20:42;;;;;;;89.60;53.88;;;21.60;64.00;;;;;;4938854;28;76130;-39
2022/05/20 02:23:19;;;;;;;87.63;53.45;;;21.60;64.00;;;;;;4948068;28;76295;-38
2022/05/20 02:25:49;;;;;;;88.28;53.67;;;21.70;63.40;;;;;;4946369;28;76661;-41
2022/05/20 02:28:24;;;;;;;89.13;53.65;;;21.60;63.80;;;;;;4948575;28;74521;-39
2022/05/20 02:30:50;;;;;;;88.75;53.38;;;21.60;64.10;;;;;;4945890;28;76200;-38
2022/05/20 02:33:20;;;;;;;87.80;53.30;;;21.60;64.10;;;;;;4954902;28;78183;-41
2022/05/20 02:35:46;;;;;;;88.18;53.47;;;21.60;63.70;;;;;;4947137;28;77236;-39
2022/05/20 02:38:16;;;;;;;89.55;53.75;;;21.60;63.80;;;;;;4951703;28;80559;-40
2022/05/20 02:40:45;;;;;;;87.75;53.38;;;21.60;64.00;;;;;;4940451;28;77240;-39
2022/05/20 02:43:11;;;;;;;87.82;53.42;;;21.70;63.70;;;;;;4939510;28;76278;-38
2022/05/20 02:45:38;;;;;;;88.88;53.72;;;21.70;63.60;;;;;;4942340;28;77618;-39
2022/05/20 02:48:05;;;;;;;89.75;54.03;;;21.60;63.80;;;;;;4946911;28;81403;-41
2022/05/20 02:50:31;;;;;;;87.53;53.45;;;21.70;63.60;;;;;;4947559;28;76793;-41
2022/05/20 02:52:57;;;;;;;88.63;53.30;;;21.60;63.50;;;;;;4948021;28;74527;-39
2022/05/20 02:55:23;;;;;;;88.82;53.58;;;21.60;63.20;;;;;;4943176;28;77330;-40
2022/05/20 02:57:48;;;;;;;89.30;53.63;;;21.60;63.50;;;;;;4941181;28;76561;-39
2022/05/20 03:05:43;;;;;;;88.05;53.33;;;21.60;63.40;;;;;;4948187;28;78747;-39
2022/05/20 03:08:09;;;;;;;88.10;53.60;;;21.60;63.80;;;;;;4950151;28;76333;-40
2022/05/20 03:10:35;;;;;;;87.07;53.25;;;21.50;63.40;;;;;;4938144;28;78988;-40
2022/05/20 03:13:02;;;;;;;87.15;53.25;;;21.60;63.70;;;;;;4943491;28;78531;-41
2022/05/20 03:15:28;;;;;;;88.80;53.78;;;21.60;63.80;;;;;;4939895;28;77211;-39
2022/05/20 03:17:54;;;;;;;87.38;53.20;;;21.50;63.30;;;;;;4943281;28;78860;-39
2022/05/20 03:20:20;;;;;;;88.57;53.65;;;21.60;63.70;;;;;;4956441;28;75106;-41
2022/05/20 03:22:46;;;;;;;87.63;53.35;;;21.60;63.70;;;;;;4948289;28;77411;-41
2022/05/20 03:25:12;;;;;;;89.63;53.53;;;21.60;63.60;;;;;;4950413;28;78051;-40
2022/05/20 03:27:37;;;;;;;88.38;53.95;;;21.60;63.50;;;;;;4949322;28;78615;-39
2022/05/20 03:30:09;;;;;;;88.47;53.58;;;21.50;63.50;;;;;;4944469;28;74376;-39
2022/05/20 03:32:35;;;;;;;87.82;53.65;;;21.50;63.70;;;;;;4940933;28;78308;-40
2022/05/20 03:35:01;;;;;;;87.75;53.30;;;21.50;63.30;;;;;;4942114;28;77591;-39
2022/05/20 03:37:27;;;;;;;88.82;53.83;;;21.50;63.40;;;;;;4942230;28;76158;-39
2022/05/20 03:39:55;;;;;;;87.55;53.33;;;21.60;63.50;;;;;;4943390;28;72860;-42
2022/05/20 03:42:21;;;;;;;89.60;54.20;;;21.60;63.50;;;;;;4934869;28;77142;-39
2022/05/20 03:44:47;;;;;;;87.80;53.40;;;21.60;63.30;;;;;;4946010;28;75637;-40
2022/05/20 03:47:13;;;;;;;89.10;53.72;;;21.60;63.10;;;;;;4936627;28;79643;-39
2022/05/20 03:49:41;;;;;;;88.75;53.40;;;21.50;63.40;;;;;;4946849;28;77104;-38
2022/05/20 03:52:07;;;;;;;89.22;53.72;;;21.60;63.10;;;;;;4947269;28;81382;-43
2022/05/20 03:54:33;;;;;;;89.63;53.80;;;21.50;64.10;;;;;;4947610;28;73461;-40
2022/05/20 03:57:00;;;;;;;89.18;53.65;;;21.50;63.30;;;;;;4943430;28;78129;-39
2022/05/20 03:59:27;;;;;;;89.43;53.80;;;21.60;63.40;;;;;;4950604;28;76477;-39
2022/05/20 04:01:59;;;;;;;90.55;53.70;;;21.60;63.20;;;;;;4945686;28;75957;-39
2022/05/20 04:04:39;;;;;;;88.68;53.58;;;21.60;63.40;;;;;;4952166;28;74599;-41
2022/05/20 04:07:14;;;;;;;88.93;53.78;;;21.60;63.40;;;;;;4947242;28;75925;-39
2022/05/20 04:09:39;;;;;;;89.32;53.58;;;21.60;63.20;;;;;;4946496;28;77180;-39
2022/05/20 04:12:08;;;;;;;90.25;54.03;;;21.60;63.10;;;;;;4933508;28;81186;-39
2022/05/20 04:14:35;;;;;;;89.85;54.38;;;21.60;63.00;;;;;;4943887;28;80363;-38
2022/05/20 04:17:01;;;;;;;88.68;53.53;;;21.60;63.10;;;;;;4937736;28;82611;-40
2022/05/20 04:19:29;;;;;;;90.53;53.65;;;21.60;62.80;;;;;;4945951;28;76473;-42
2022/05/20 04:21:58;;;;;;;88.88;53.45;;;21.60;63.10;;;;;;4940114;28;75306;-38
2022/05/20 04:24:24;;;;;;;88.80;53.65;;;21.60;62.90;;;;;;4941339;28;76475;-38
2022/05/20 04:26:51;;;;;;;88.57;53.72;;;21.60;62.90;;;;;;4944646;28;76290;-39
2022/05/20 04:29:18;;;;;;;89.43;53.65;;;21.60;62.80;;;;;;4950175;28;78082;-39
2022/05/20 04:31:46;;;;;;;88.72;53.55;;;21.60;62.90;;;;;;4946095;28;78261;-40
2022/05/20 04:34:12;;;;;;;89.53;54.25;;;21.60;62.80;;;;;;4940735;28;77464;-40
2022/05/20 04:36:38;;;;;;;89.35;53.55;;;21.60;62.70;;;;;;4939301;28;79026;-40
2022/05/20 04:39:04;;;;;;;90.30;53.75;;;21.70;62.40;;;;;;4945219;28;79356;-41
2022/05/20 04:46:59;;;;;;;88.50;53.30;;;21.70;62.50;;;;;;4938817;28;82748;-43
2022/05/20 04:49:30;;;;;;;89.90;54.28;;;21.70;62.20;;;;;;4944295;28;78777;-39
2022/05/20 04:51:57;;;;;;;90.53;54.85;;;21.70;62.40;;;;;;4942394;28;77604;-40
2022/05/20 04:57:08;;;;;;;88.45;53.72;;;21.70;62.20;;;;;;4942196;28;79646;-39
2022/05/20 04:59:41;;;;;;;89.95;53.88;;;21.70;62.20;;;;;;4944741;28;76437;-43
2022/05/20 05:02:07;;;;;;;90.80;54.75;;;21.70;62.20;;;;;;4927713;28;77734;-38
2022/05/20 05:04:33;;;;;;;90.40;54.70;;;21.70;62.30;;;;;;4938378;28;75665;-43
2022/05/20 05:06:59;;;;;;;90.75;54.95;;;21.70;62.90;;;;;;4937517;28;78367;-41
2022/05/20 05:09:24;;;;;;;90.05;54.17;;;21.70;62.20;;;;;;4947202;28;76305;-39
2022/05/20 05:11:50;;;;;;;92.38;54.97;;;21.70;62.20;;;;;;4934268;28;74636;-39
2022/05/20 05:14:16;;;;;;;91.05;54.58;;;21.80;62.00;;;;;;4934855;28;78440;-38
2022/05/20 05:16:43;;;;;;;90.00;54.60;;;21.80;62.00;;;;;;4931341;28;81320;-41
2022/05/20 05:19:10;;;;;;;91.72;54.28;;;21.80;62.20;;;;;;4938094;28;78254;-42
2022/05/20 05:21:36;;;;;;;92.60;54.88;;;21.80;62.10;;;;;;4934957;28;78456;-39
2022/05/20 05:24:03;;;;;;;91.30;54.75;;;21.80;62.60;;;;;;4939086;28;74374;-38
2022/05/20 05:26:32;;;;;;;91.80;55.35;;;21.90;62.70;;;;;;4941116;28;81116;-40
2022/05/20 05:28:59;;;;;;;90.28;54.80;;;21.90;62.40;;;;;;4931403;28;76641;-40
2022/05/20 05:31:26;;;;;;;90.50;54.88;;;22.00;62.30;;;;;;4938321;28;79459;-39
2022/05/20 05:33:52;;;;;;;92.88;54.95;;;22.00;62.20;;;;;;4941170;28;79252;-38
2022/05/20 05:36:19;;;;;;;94.00;54.47;;;22.00;62.00;;;;;;4942984;28;75067;-41
2022/05/20 05:38:46;;;;;;;90.97;54.75;;;21.90;62.10;;;;;;4937178;28;78359;-39
2022/05/20 05:41:12;;;;;;;96.70;55.35;;;21.90;62.20;;;;;;4938298;28;80298;-41
2022/05/20 05:43:37;;;;;;;92.10;55.88;;;21.90;62.10;;;;;;4932034;28;80426;-40
2022/05/20 05:46:04;;;;;;;92.00;54.72;;;21.90;62.20;;;;;;4920597;28;80756;-39
2022/05/20 05:48:30;;;;;;;95.35;55.42;;;21.90;63.10;;;;;;4934277;28;82309;-39
2022/05/20 05:50:56;;;;;;;97.95;55.92;;;21.90;62.10;;;;;;4949045;28;76498;-40
2022/05/20 05:53:27;;;;;;;96.30;55.33;;;22.10;61.80;;;;;;4946882;28;80586;-40
2022/05/20 05:55:58;;;;;;;93.00;55.47;;;22.10;61.40;;;;;;4946987;28;80066;-39
2022/05/20 05:58:25;;;;;;;93.80;55.53;;;22.20;61.20;;;;;;4943657;28;74918;-39
2022/05/20 06:00:51;;;;;;;95.72;55.72;;;22.20;61.00;;;;;;4946677;28;76110;-41
2022/05/20 06:03:16;;;;;;;95.63;56.85;;;22.20;61.50;;;;;;4946859;28;75628;-38
2022/05/20 06:05:44;;;;;;;92.57;55.17;;;22.20;61.60;;;;;;4945223;28;78359;-42
2022/05/20 06:08:09;;;;;;;93.93;55.13;;;22.20;60.80;;;;;;4949187;28;75865;-42
2022/05/20 06:10:35;;;;;;;93.70;55.88;;;22.20;60.90;;;;;;4943361;28;74119;-38
2022/05/20 06:13:01;;;;;;;92.28;55.30;;;22.20;61.00;;;;;;4942507;28;77723;-39
2022/05/20 06:15:27;;;;;;;94.13;56.67;;;22.20;60.80;;;;;;4943780;28;84570;-39
2022/05/20 06:17:53;;;;;;;95.47;56.35;;;22.20;60.80;;;;;;4945071;28;78319;-39
2022/05/20 06:20:24;;;;;;;97.70;55.92;;;22.20;60.60;;;;;;4939206;28;78469;-39
2022/05/20 06:22:50;;;;;;;93.97;55.35;;;22.20;60.60;;;;;;4945713;28;80515;-38
2022/05/20 06:25:17;;;;;;;95.25;56.92;;;22.30;60.60;;;;;;4949863;28;77882;-39
2022/05/20 06:27:43;;;;;;;95.30;55.88;;;22.40;60.50;;;;;;4945310;28;78479;-41
2022/05/20 06:30:11;;;;;;;94.10;55.45;;;22.50;60.40;;;;;;4947327;28;79865;-42
2022/05/20 06:32:37;;;;;;;95.40;56.17;;;22.50;60.40;;;;;;4949643;28;75665;-40
2022/05/20 06:40:44;;;;;;;97.25;56.25;;;22.50;60.30;;;;;;4949401;28;75965;-38
2022/05/20 06:43:14;;;;;;;99.43;56.95;;;22.60;60.10;;;;;;4938865;28;79850;-41
2022/05/20 06:45:41;;;;;;;98.65;57.42;;;22.70;60.10;;;;;;4944431;28;81757;-40
2022/05/20 06:48:07;;;;;;;101.40;58.45;;;22.70;60.00;;;;;;4949230;28;78630;-40
2022/05/20 06:50:36;;;;;;;102.93;59.03;;;22.80;59.90;;;;;;4953756;28;74854;-38
2022/05/20 06:53:02;;;;;;;103.05;59.25;;;22.90;59.90;;;;;;4944788;28;75687;-39
2022/05/20 06:55:28;;;;;;;101.68;59.22;;;22.80;59.80;;;;;;4940576;28;74080;-39
2022/05/20 06:57:54;;;;;;;104.35;59.33;;;22.90;59.90;;;;;;4938872;28;74664;-39
2022/05/20 07:00:19;;;;;;;104.50;59.95;;;22.80;60.00;;;;;;4935759;28;76177;-39
2022/05/20 07:02:45;;;;;;;102.05;59.90;;;22.80;60.00;;;;;;4934497;28;81461;-38
2022/05/20 07:05:11;;;;;;;103.80;60.20;;;22.80;60.00;;;;;;4938219;28;74569;-40
2022/05/20 07:07:38;;;;;;;106.30;59.70;;;22.80;60.30;;;;;;4941366;28;79021;-38
2022/05/20 07:10:06;;;;;;;101.15;60.03;;;22.80;60.50;;;;;;4942555;28;76852;-41
2022/05/20 07:12:33;;;;;;;102.25;59.67;;;22.80;60.50;;;;;;4939337;28;85022;-40
2022/05/20 07:15:00;;;;;;;100.18;59.65;;;22.80;60.50;;;;;;4933114;28;81707;-39
2022/05/20 07:17:27;;;;;;;103.97;59.95;;;22.80;60.30;;;;;;4939586;28;78022;-39
2022/05/20 07:19:55;;;;;;;101.63;60.33;;;22.80;60.20;;;;;;4940072;28;77837;-40
2022/05/20 07:22:21;;;;;;;106.78;60.53;;;22.90;60.00;;;;;;4933021;28;82394;-40
2022/05/20 07:24:47;;;;;;;103.15;60.88;;;22.90;60.00;;;;;;4929528;28;76481;-38
2022/05/20 07:27:13;;;;;;;103.40;60.88;;;22.90;60.00;;;;;;4944604;28;78565;-39
2022/05/20 07:29:39;;;;;;;104.90;62.53;;;22.90;59.90;;;;;;4938187;28;76490;-37
2022/05/20 07:32:05;;;;;;;107.70;62.53;;;23.00;60.00;;;;;;4942571;28;73576;-38
2022/05/20 07:34:31;;;;;;;107.55;61.20;;;23.00;59.90;;;;;;4941938;28;82238;-38
2022/05/20 07:36:57;;;;;;;109.50;64.45;;;23.00;59.70;;;;;;4919710;28;75199;-38
2022/05/20 07:39:22;;;;;;;110.20;67.97;;;23.00;59.90;;;;;;4934873;28;78370;-38
2022/05/20 07:41:48;;;;;;;113.38;71.30;;;23.10;59.60;;;;;;4928329;28;75744;-38
2022/05/20 07:44:14;;;;;;;112.10;68.43;;;23.10;59.40;;;;;;4919734;28;74367;-41
2022/05/20 07:46:39;;;;;;;116.13;70.45;;;23.10;59.00;;;;;;4926983;28;74540;-39
2022/05/20 07:49:06;;;;;;;113.25;68.78;;;23.10;58.80;;;;;;4935021;28;75186;-40
2022/05/20 07:51:34;;;;;;;113.63;67.53;;;23.20;59.30;;;;;;4935563;28;78196;-37
2022/05/20 07:54:05;;;;;;;116.32;70.80;;;23.20;59.40;;;;;;4933676;28;74468;-39
2022/05/20 07:56:32;;;;;;;118.40;70.75;;;23.30;59.30;;;;;;4937546;28;74946;-37
2022/05/20 07:59:09;;;;;;;116.90;70.90;;;23.40;59.40;;;;;;4943210;28;78243;-40
2022/05/20 08:01:38;;;;;;;111.97;71.30;;;23.40;59.30;;;;;;4937452;28;76128;-39
2022/05/20 08:06:58;;;;;;;113.38;70.95;;;23.40;59.50;;;;;;4946877;28;81935;-37
2022/05/20 08:09:24;;;;;;;118.25;71.10;;;23.40;59.80;;;;;;4944531;28;74910;-39
2022/05/20 08:11:50;;;;;;;112.90;70.55;;;23.30;60.10;;;;;;4933923;28;74928;-40
2022/05/20 08:14:16;;;;;;;114.55;69.45;;;23.50;60.20;;;;;;4927055;28;75088;-37
2022/05/20 08:16:41;;;;;;;120.68;72.85;;;23.50;59.60;;;;;;4942274;28;78986;-37
2022/05/20 08:19:07;;;;;;;116.72;74.30;;;23.50;59.80;;;;;;4953953;28;74112;-39
2022/05/20 08:21:34;;;;;;;114.40;71.80;;;23.50;60.70;;;;;;4939180;28;76638;-40
2022/05/20 08:24:01;;;;;;;115.25;72.82;;;23.50;60.80;;;;;;4942839;28;77049;-39
2022/05/20 08:26:26;;;;;;;120.20;74.30;;;23.60;61.10;;;;;;4934254;28;83864;-37
2022/05/20 08:28:54;;;;;;;116.47;72.53;;;23.60;60.40;;;;;;4949052;28;73534;-39
2022/05/20 08:31:22;;;;;;;118.82;73.15;;;23.60;60.30;;;;;;4930254;28;79142;-38
2022/05/20 08:33:50;;;;;;;121.20;74.68;;;23.60;60.00;;;;;;4947480;28;79407;-39
2022/05/20 08:36:18;;;;;;;117.22;74.50;;;23.60;60.30;;;;;;4933416;28;74116;-37
2022/05/20 08:38:46;;;;;;;117.75;72.50;;;23.60;60.40;;;;;;4941717;28;78697;-37
2022/05/20 08:41:36;;;;;;;119.70;76.70;;;23.70;59.70;;;;;;4923000;28;81523;-38
2022/05/20 08:44:06;;;;;;;124.00;77.45;;;23.70;60.50;;;;;;4936150;28;78647;-39
2022/05/20 08:46:34;;;;;;;120.75;76.60;;;23.70;60.50;;;;;;4932129;28;80335;-38
2022/05/20 08:48:59;;;;;;;110.70;70.65;;;23.80;60.50;;;;;;4935793;28;80385;-38
2022/05/20 08:51:32;;;;;;;120.18;77.40;;;23.70;59.80;;;;;;4932029;28;75019;-39
2022/05/20 08:53:58;;;;;;;120.38;74.40;;;23.80;60.30;;;;;;4931751;28;79759;-37
2022/05/20 08:56:25;;;;;;;125.78;77.88;;;23.80;59.80;;;;;;4934634;28;74147;-37
2022/05/20 08:59:01;;;;;;;118.78;76.63;;;23.90;60.10;;;;;;4943878;28;76673;-37
2022/05/20 09:01:42;;;;;;;118.35;76.57;;;24.00;59.90;;;;;;4938139;28;75735;-39
2022/05/20 09:04:10;;;;;;;123.03;77.27;;;24.00;59.70;;;;;;4932214;28;76931;-38
2022/05/20 09:06:56;;;;;;;124.40;79.85;;;24.00;60.00;;;;;;4932858;28;75265;-41
2022/05/20 09:09:25;;;;;;;119.88;76.72;;;24.10;61.10;;;;;;4950505;28;81385;-40
2022/05/20 09:11:57;;;;;;;122.95;76.55;;;24.00;61.30;;;;;;4938946;28;75105;-37
2022/05/20 09:17:18;;;;;;;119.05;74.82;;;24.00;60.40;;;;;;4930481;28;81653;-40
2022/05/20 09:20:02;;;;;;;122.47;79.20;;;24.00;59.90;;;;;;4929121;28;78726;-39
2022/05/20 09:22:35;;;;;;;121.65;78.53;;;24.00;60.60;;;;;;4936215;28;76203;-39
2022/05/20 09:25:01;;;;;;;123.47;78.35;;;24.00;60.90;;;;;;4943605;28;78252;-37
2022/05/20 09:27:33;;;;;;;117.55;76.22;;;23.90;60.90;;;;;;4945447;28;75170;-39
2022/05/20 09:30:08;;;;;;;119.28;76.70;;;23.90;61.20;;;;;;4935496;28;76634;-39
2022/05/20 09:32:57;;;;;;;126.78;80.07;;;24.00;60.40;;;;;;4945279;28;76855;-39
2022/05/20 09:35:23;;;;;;;121.72;79.95;;;24.10;60.30;;;;;;4936106;28;78456;-40
2022/05/20 09:37:51;;;;;;;124.20;78.07;;;24.10;61.10;;;;;;4941806;28;76384;-37
2022/05/20 09:40:33;;;;;;;118.63;78.70;;;24.00;61.20;;;;;;4936289;28;80169;-40
2022/05/20 09:43:00;;;;;;;125.55;80.90;;;23.90;62.20;;;;;;4945674;28;76726;-39
2022/05/20 09:45:26;;;;;;;125.07;81.35;;;23.80;62.60;;;;;;4926762;28;76494;-41
2022/05/20 09:47:56;;;;;;;125.80;80.97;;;23.70;63.40;;;;;;4932168;28;77170;-37
2022/05/20 09:50:28;;;;;;;126.18;79.35;;;23.50;63.90;;;;;;4929308;28;77862;-38
2022/05/20 09:53:02;;;;;;;121.72;76.80;;;23.50;63.10;;;;;;4934253;28;77048;-38
2022/05/20 09:55:41;;;;;;;123.93;79.30;;;23.60;62.80;;;;;;4924882;28;81976;-39
2022/05/20 09:58:14;;;;;;;130.80;80.55;;;23.70;63.30;;;;;;4947362;28;75568;-37
2022/05/20 10:00:48;;;;;;;127.47;82.43;;;23.70;64.90;;;;;;4942254;28;76903;-39
2022/05/20 10:03:33;;;;;;;128.25;81.25;;;23.50;65.10;;;;;;4936989;28;83378;-38
2022/05/20 10:06:16;;;;;;;130.70;84.20;;;23.50;64.80;;;;;;4940576;28;80785;-38
2022/05/20 10:09:11;;;;;;;128.82;84.43;;;23.40;65.70;;;;;;4950985;28;77542;-37
2022/05/20 10:11:48;;;;;;;120.40;76.13;;;23.30;66.50;;;;;;4946246;28;74738;-38
2022/05/20 10:14:28;;;;;;;130.40;82.93;;;23.30;66.20;;;;;;4934881;28;75387;-38
2022/05/20 10:17:31;;;;;;;122.80;77.55;;;23.20;66.80;;;;;;4929358;28;78478;-37
2022/05/20 10:20:40;;;;;;;134.10;83.63;;;23.20;67.00;;;;;;4958330;28;76145;-37
2022/05/20 10:23:16;;;;;;;128.70;81.97;;;23.00;68.10;;;;;;4949673;28;75072;-38
2022/05/20 10:26:08;;;;;;;134.40;83.75;;;22.80;69.20;;;;;;4947611;28;77237;-39
2022/05/20 10:34:43;;;;;;;130.73;82.30;;;22.50;70.90;;;;;;4945850;28;76988;-38
2022/05/20 10:37:27;;;;;;;130.80;83.30;;;22.50;71.20;;;;;;4945572;28;76024;-44
2022/05/20 10:40:24;;;;;;;130.65;85.20;;;22.50;71.10;;;;;;4945466;28;76771;-41
2022/05/20 10:43:02;;;;;;;134.00;85.97;;;22.50;72.10;;;;;;4938532;28;79448;-38
2022/05/20 10:48:44;;;;;;;134.43;86.88;;;22.30;73.50;;;;;;4943407;28;76848;-41
2022/05/20 10:51:18;;;;;;;138.88;86.68;;;22.30;73.80;;;;;;4948097;28;79020;-38
2022/05/20 10:53:55;;;;;;;126.68;81.07;;;22.40;74.40;;;;;;4951015;28;78530;-38
2022/05/20 10:56:35;;;;;;;129.43;82.10;;;22.30;73.80;;;;;;4951612;28;73164;-38
2022/05/20 10:59:13;;;;;;;130.50;81.18;;;22.30;73.80;;;;;;4953287;28;78040;-38
2022/05/20 11:01:59;;;;;;;125.60;81.70;;;22.40;74.80;;;;;;4950059;28;80057;-37
2022/05/20 11:04:54;;;;;;;122.93;81.75;;;22.30;74.80;;;;;;4951466;28;80077;-38
2022/05/20 11:07:25;;;;;;;128.27;82.15;;;22.30;75.10;;;;;;4945353;28;83400;-39
2022/05/20 11:10:07;;;;;;;128.27;84.15;;;22.20;75.30;;;;;;4943608;28;83896;-39
2022/05/20 11:13:06;;;;;;;124.50;81.63;;;22.10;76.00;;;;;;4945173;28;82363;-37
2022/05/20 11:15:48;;;;;;;122.50;79.70;;;22.20;75.90;;;;;;4942464;28;82982;-38
2022/05/20 11:18:51;;;;;;;118.82;78.00;;;22.20;75.90;;;;;;4935903;28;81282;-38
2022/05/20 11:21:22;;;;;;;115.00;74.10;;;22.40;76.40;;;;;;4950314;28;79771;-38
2022/05/20 11:24:02;;;;;;;118.93;77.05;;;22.50;76.00;;;;;;4946550;28;86627;-40
2022/05/20 11:26:54;;;;;;;117.40;73.50;;;22.60;75.70;;;;;;4955894;28;76985;-39
2022/05/20 11:29:22;;;;;;;113.88;73.57;;;22.80;74.90;;;;;;4948255;28;79482;-40
2022/05/20 11:31:54;;;;;;;116.93;74.35;;;23.10;73.60;;;;;;4955461;28;77012;-38
2022/05/20 11:34:29;;;;;;;118.18;76.95;;;23.30;73.90;;;;;;4947484;28;78370;-37
2022/05/20 11:37:16;;;;;;;114.78;72.53;;;23.50;74.60;;;;;;4955109;28;76700;-37
2022/05/20 11:39:58;;;;;;;117.22;74.82;;;23.60;72.70;;;;;;4951775;28;76278;-38
2022/05/20 11:43:01;;;;;;;112.22;72.22;;;23.70;73.40;;;;;;4947767;28;76329;-39
2022/05/20 11:45:32;;;;;;;113.30;72.45;;;23.60;73.80;;;;;;4941060;28;79016;-38
2022/05/20 11:48:20;;;;;;;108.90;70.97;;;23.50;74.90;;;;;;4943149;28;79005;-39
2022/05/20 11:51:04;;;;;;;107.28;69.18;;;23.40;76.70;;;;;;4956596;28;77491;-37
2022/05/20 11:53:44;;;;;;;105.25;68.40;;;23.20;76.30;;;;;;4954320;28;77252;-37
2022/05/20 11:56:31;;;;;;;107.18;67.63;;;23.10;78.30;;;;;;4950617;28;83666;-37
2022/05/20 11:59:15;;;;;;;107.88;66.25;;;23.20;77.50;;;;;;4950365;28;78942;-38
2022/05/20 12:01:43;;;;;;;105.18;65.50;;;23.50;75.60;;;;;;4950350;28;72983;-37
2022/05/20 12:04:10;;;;;;;100.55;63.80;;;23.50;75.50;;;;;;4949557;28;80147;-38
2022/05/20 12:07:01;;;;;;;100.68;63.78;;;23.40;75.20;;;;;;4950545;28;74845;-42
2022/05/20 12:09:35;;;;;;;100.33;63.43;;;23.30;75.50;;;;;;4948948;28;78863;-40
2022/05/20 12:12:20;;;;;;;99.65;63.10;;;23.20;75.80;;;;;;4953845;28;77543;-39
2022/05/20 12:15:10;;;;;;;101.03;63.10;;;23.20;75.40;;;;;;4948551;28;79094;-39
2022/05/20 12:17:48;;;;;;;98.05;62.80;;;23.30;75.20;;;;;;4951856;28;77339;-39
2022/05/20 12:26:45;;;;;;;98.95;62.00;;;23.40;74.10;;;;;;4952061;28;74503;-38
2022/05/20 12:29:37;;;;;;;100.18;61.70;;;23.40;73.80;;;;;;4951291;28;76801;-38
2022/05/20 12:32:29;;;;;;;100.20;62.42;;;23.40;73.30;;;;;;4956031;28;76221;-39
2022/05/20 12:35:15;;;;;;;100.35;61.60;;;23.60;72.60;;;;;;4952586;28;75080;-38
2022/05/20 12:37:44;;;;;;;98.07;61.45;;;23.80;71.80;;;;;;4932733;28;76013;-39
2022/05/20 12:40:27;;;;;;;99.38;61.25;;;23.90;71.20;;;;;;4932041;28;79866;-38
2022/05/20 12:43:13;;;;;;;98.40;60.28;;;23.90;70.90;;;;;;4933046;28;79749;-39
2022/05/20 12:46:05;;;;;;;98.72;60.28;;;23.80;71.20;;;;;;4934006;28;73434;-42
2022/05/20 12:48:30;;;;;;;97.00;59.53;;;23.60;71.50;;;;;;4946446;28;75213;-38
2022/05/20 12:51:01;;;;;;;99.57;61.25;;;23.50;71.50;;;;;;4940243;28;79537;-38
2022/05/20 12:53:29;;;;;;;;;;;23.40;71.40;;;;;;4944006;28;76812;-39
2022/05/20 12:55:55;;;;;;;95.78;59.10;;;23.40;71.30;;;;;;4940151;28;78877;-37
2022/05/20 12:58:29;;;;;;;96.63;59.53;;;23.30;71.50;;;;;;4939022;28;78558;-38
2022/05/20 13:00:59;;;;;;;97.03;59.17;;;23.20;71.50;;;;;;4945857;28;78539;-39
2022/05/20 13:03:28;;;;;;;93.85;59.35;;;23.20;71.20;;;;;;4933162;28;75435;-38
2022/05/20 13:06:00;;;;;;;96.60;58.80;;;23.20;71.20;;;;;;4936328;28;77589;-39
2022/05/20 13:08:33;;;;;;;94.22;58.67;;;23.10;71.30;;;;;;4933183;28;74718;-41
2022/05/20 13:11:10;;;;;;;94.60;58.08;;;23.10;71.40;;;;;;4940976;28;77119;-39
2022/05/20 13:13:37;;;;;;;96.18;58.42;;;23.10;71.10;;;;;;4941825;28;77531;-38
2022/05/20 13:16:06;;;;;;;94.55;58.17;;;23.20;71.40;;;;;;4934645;28;81369;-38
2022/05/20 13:18:37;;;;;;;96.43;58.17;;;23.40;70.60;;;;;;4946122;28;77222;-39
2022/05/20 13:21:07;;;;;;;95.75;58.30;;;23.50;70.20;;;;;;4940202;28;80634;-39
2022/05/20 13:23:38;;;;;;;97.53;57.83;;;23.70;69.30;;;;;;4943662;28;77392;-40
2022/05/20 13:26:05;;;;;;;97.15;58.40;;;23.80;68.90;;;;;;4943593;28;76556;-40